Time;durP1;ratioP1;P1;durP2;ratioP2;P2;SDS_P1;SDS_P2;PMS_P1;PMS_P2;Temp;Humidity;BMP_temperature;BMP_pressure;BME280_temperature;BME280_humidity;BME280_pressure;Samples;Min_cycle;Max_cycle;Signal;HPM_P1;HPM_P2
2023/11/05 00:02:02;;;;;;;9.68;1.50;;;;;;;;;;4993615;28;20030;-37
2023/11/05 00:04:29;;;;;;;8.25;1.60;;;;;;;;;;4992679;28;20030;-36
2023/11/05 00:06:56;;;;;;;4.88;1.67;;;;;;;;;;4993206;28;20042;-36
2023/11/05 00:09:23;;;;;;;9.70;1.52;;;;;;;;;;4993660;28;20026;-37
2023/11/05 00:11:50;;;;;;;9.98;1.40;;;;;;;;;;4993561;28;20080;-36
2023/11/05 00:14:17;;;;;;;5.88;1.90;;;;;;;;;;4993716;28;20068;-36
2023/11/05 00:16:45;;;;;;;4.28;1.42;;;;;;;;;;4993300;28;20038;-37
2023/11/05 00:19:12;;;;;;;5.35;1.48;;;;;;;;;;4993311;28;20034;-37
2023/11/05 00:21:39;;;;;;;4.28;1.25;;;;;;;;;;4991959;28;20034;-37
2023/11/05 00:24:06;;;;;;;4.97;1.40;;;;;;;;;;4993537;28;20031;-37
2023/11/05 00:26:34;;;;;;;5.55;1.50;;;;;;;;;;4992952;28;20105;-37
2023/11/05 00:29:01;;;;;;;6.30;1.40;;;;;;;;;;5010149;28;20057;-37
2023/11/05 00:31:27;;;;;;;4.28;1.25;;;;;;;;;;5012310;28;20029;-37
2023/11/05 00:33:55;;;;;;;5.95;1.33;;;;;;;;;;5012106;28;20034;-36
2023/11/05 00:36:22;;;;;;;6.60;1.48;;;;;;;;;;5012392;28;20056;-37
2023/11/05 00:38:51;;;;;;;5.30;1.55;;;;;;;;;;5011793;28;20034;-36
2023/11/05 00:41:17;;;;;;;9.90;1.35;;;;;;;;;;5012670;28;20038;-36
2023/11/05 00:43:44;;;;;;;6.53;1.50;;;;;;;;;;5012600;28;20033;-36
2023/11/05 00:46:12;;;;;;;8.13;1.42;;;;;;;;;;5012492;28;20022;-37
2023/11/05 00:48:39;;;;;;;6.30;1.50;;;;;;;;;;5012260;28;20114;-37
2023/11/05 00:51:06;;;;;;;7.75;1.63;;;;;;;;;;5012559;28;20033;-36
2023/11/05 00:53:33;;;;;;;7.78;1.85;;;;;;;;;;5012166;28;20036;-36
2023/11/05 00:56:00;;;;;;;7.22;1.60;;;;;;;;;;5012100;28;20034;-37
2023/11/05 00:58:27;;;;;;;7.95;1.80;;;;;;;;;;5012407;28;20030;-37
2023/11/05 01:00:54;;;;;;;10.90;1.90;;;;;;;;;;5012114;28;20080;-36
2023/11/05 01:03:21;;;;;;;7.65;1.60;;;;;;;;;;5011643;28;20040;-37
2023/11/05 01:05:48;;;;;;;3.58;1.40;;;;;;;;;;5012180;28;20029;-37
2023/11/05 01:08:15;;;;;;;7.75;1.67;;;;;;;;;;4994098;28;20033;-36
2023/11/05 01:10:42;;;;;;;9.18;1.58;;;;;;;;;;5011985;28;20033;-36
2023/11/05 01:13:09;;;;;;;7.28;1.70;;;;;;;;;;5011902;28;20075;-36
2023/11/05 01:15:36;;;;;;;4.88;1.88;;;;;;;;;;5008220;28;20025;-36
2023/11/05 01:18:03;;;;;;;6.55;1.70;;;;;;;;;;5011741;28;20029;-36
2023/11/05 01:20:30;;;;;;;6.28;1.75;;;;;;;;;;5010988;28;20060;-36
2023/11/05 01:22:57;;;;;;;3.58;1.50;;;;;;;;;;4993993;28;20136;-36
2023/11/05 01:25:25;;;;;;;6.55;1.63;;;;;;;;;;5011511;28;20045;-37
2023/11/05 01:27:52;;;;;;;6.60;1.60;;;;;;;;;;5011390;28;20077;-37
2023/11/05 01:30:19;;;;;;;7.45;1.98;;;;;;;;;;5011462;28;20034;-37
2023/11/05 01:32:46;;;;;;;6.13;1.90;;;;;;;;;;5011755;28;20030;-36
2023/11/05 01:35:13;;;;;;;4.97;1.88;;;;;;;;;;5011765;28;20033;-37
2023/11/05 01:37:40;;;;;;;5.05;1.88;;;;;;;;;;5011401;28;20076;-36
2023/11/05 01:40:07;;;;;;;4.57;1.50;;;;;;;;;;5011701;28;20421;-36
2023/11/05 01:42:34;;;;;;;4.97;1.58;;;;;;;;;;5009261;28;20469;-37
2023/11/05 01:45:03;;;;;;;6.78;1.92;;;;;;;;;;5011243;28;20095;-36
2023/11/05 01:47:30;;;;;;;5.88;1.90;;;;;;;;;;5010573;28;20034;-37
2023/11/05 01:49:57;;;;;;;6.93;2.05;;;;;;;;;;5011143;28;20543;-36
2023/11/05 01:52:24;;;;;;;3.50;1.90;;;;;;;;;;5011047;28;20054;-37
2023/11/05 01:54:51;;;;;;;6.25;1.90;;;;;;;;;;4993631;28;20463;-36
2023/11/05 01:57:18;;;;;;;5.47;1.58;;;;;;;;;;5010863;28;20034;-37
2023/11/05 01:59:45;;;;;;;5.32;1.65;;;;;;;;;;5011015;28;20030;-37
2023/11/05 02:02:12;;;;;;;9.63;2.08;;;;;;;;;;5010959;28;20030;-37
2023/11/05 02:04:40;;;;;;;5.97;1.63;;;;;;;;;;5010805;28;20037;-37
2023/11/05 02:07:07;;;;;;;2.97;1.80;;;;;;;;;;5011127;28;20042;-36
2023/11/05 02:09:34;;;;;;;7.63;1.60;;;;;;;;;;5010909;28;20026;-37
2023/11/05 02:12:02;;;;;;;5.05;1.58;;;;;;;;;;5011222;28;20045;-36
2023/11/05 02:14:29;;;;;;;7.50;1.90;;;;;;;;;;5010153;28;20535;-37
2023/11/05 02:16:56;;;;;;;5.53;1.45;;;;;;;;;;4993261;28;20042;-37
2023/11/05 02:19:23;;;;;;;5.20;2.05;;;;;;;;;;5010707;28;20393;-36
2023/11/05 02:21:52;;;;;;;3.08;1.40;;;;;;;;;;5010454;28;20034;-37
2023/11/05 02:24:19;;;;;;;5.53;1.52;;;;;;;;;;5011168;28;20113;-36
2023/11/05 02:27:06;;;;;;;2.63;1.63;;;;;;;;;;4992947;28;20117;-37
2023/11/05 02:29:33;;;;;;;3.97;1.70;;;;;;;;;;5010708;28;20061;-37
2023/11/05 02:32:03;;;;;;;5.97;1.70;;;;;;;;;;5011412;28;20038;-37
2023/11/05 02:34:33;;;;;;;4.00;1.58;;;;;;;;;;5014847;28;20042;-36
2023/11/05 02:37:00;;;;;;;3.55;1.52;;;;;;;;;;5014666;28;20045;-36
2023/11/05 02:39:27;;;;;;;4.28;1.38;;;;;;;;;;5014906;28;20485;-36
2023/11/05 02:41:55;;;;;;;6.13;1.60;;;;;;;;;;5014486;28;20046;-36
2023/11/05 02:44:22;;;;;;;5.68;1.35;;;;;;;;;;5014473;28;20080;-36
2023/11/05 02:46:49;;;;;;;4.40;1.60;;;;;;;;;;5012570;28;20034;-37
2023/11/05 02:49:16;;;;;;;7.53;1.70;;;;;;;;;;5011959;28;20484;-38
2023/11/05 02:51:46;;;;;;;10.25;1.85;;;;;;;;;;4996714;28;20385;-36
2023/11/05 02:54:13;;;;;;;11.50;1.40;;;;;;;;;;5014547;28;20091;-36
2023/11/05 02:56:40;;;;;;;8.23;1.52;;;;;;;;;;5014003;28;20030;-36
2023/11/05 02:59:07;;;;;;;17.20;1.60;;;;;;;;;;5014117;28;20381;-36
2023/11/05 03:01:36;;;;;;;13.15;1.67;;;;;;;;;;5014660;28;20042;-37
2023/11/05 03:04:03;;;;;;;7.30;1.60;;;;;;;;;;5014539;28;20041;-36
2023/11/05 03:06:30;;;;;;;8.05;1.48;;;;;;;;;;5014697;28;20566;-36
2023/11/05 03:08:57;;;;;;;12.82;1.75;;;;;;;;;;5014594;28;20030;-36
2023/11/05 03:11:24;;;;;;;8.45;1.70;;;;;;;;;;5014441;28;20030;-35
2023/11/05 03:13:52;;;;;;;8.70;1.40;;;;;;;;;;5014178;28;20062;-37
2023/11/05 03:16:19;;;;;;;6.20;1.25;;;;;;;;;;5014328;28;20133;-37
2023/11/05 03:18:46;;;;;;;6.90;1.05;;;;;;;;;;5014307;28;20037;-36
2023/11/05 03:21:15;;;;;;;7.75;1.23;;;;;;;;;;5014211;28;20057;-36
2023/11/05 03:23:43;;;;;;;7.28;1.45;;;;;;;;;;5014257;28;20429;-36
2023/11/05 03:26:10;;;;;;;8.13;1.17;;;;;;;;;;4996374;28;20034;-36
2023/11/05 03:28:37;;;;;;;5.10;1.27;;;;;;;;;;5014118;28;20512;-36
2023/11/05 03:31:04;;;;;;;7.45;1.08;;;;;;;;;;5014304;28;20042;-36
2023/11/05 03:33:31;;;;;;;6.50;1.45;;;;;;;;;;5014231;28;20061;-37
2023/11/05 03:36:00;;;;;;;5.50;1.20;;;;;;;;;;5014039;28;20484;-36
2023/11/05 03:38:27;;;;;;;4.20;1.27;;;;;;;;;;5013829;28;20126;-38
2023/11/05 03:40:54;;;;;;;5.60;1.27;;;;;;;;;;5014144;28;20040;-37
2023/11/05 03:43:21;;;;;;;3.63;0.80;;;;;;;;;;5013556;28;20048;-37
2023/11/05 03:45:48;;;;;;;2.88;0.90;;;;;;;;;;5014049;28;20486;-36
2023/11/05 03:48:16;;;;;;;3.03;0.90;;;;;;;;;;5013966;28;20112;-37
2023/11/05 03:50:43;;;;;;;3.22;0.80;;;;;;;;;;4996250;28;20026;-36
2023/11/05 03:53:10;;;;;;;2.88;0.77;;;;;;;;;;5013835;28;20076;-36
2023/11/05 03:55:37;;;;;;;3.42;0.98;;;;;;;;;;5013727;28;20037;-36
2023/11/05 03:58:04;;;;;;;2.70;0.70;;;;;;;;;;5013747;28;20044;-36
2023/11/05 04:00:31;;;;;;;6.18;0.93;;;;;;;;;;5013787;28;20036;-36
2023/11/05 04:02:58;;;;;;;3.88;0.93;;;;;;;;;;5013346;28;20038;-35
2023/11/05 04:05:25;;;;;;;4.65;1.00;;;;;;;;;;5013957;28;20385;-35
2023/11/05 04:07:52;;;;;;;5.82;1.00;;;;;;;;;;5013644;28;20054;-35
2023/11/05 04:10:19;;;;;;;6.68;0.80;;;;;;;;;;5013642;28;20030;-36
2023/11/05 04:12:46;;;;;;;4.13;0.80;;;;;;;;;;5013539;28;20117;-36
2023/11/05 04:15:13;;;;;;;2.10;0.80;;;;;;;;;;5013326;28;20392;-36
2023/11/05 04:17:40;;;;;;;5.93;0.80;;;;;;;;;;5013313;28;20029;-36
2023/11/05 04:20:07;;;;;;;4.05;0.80;;;;;;;;;;5013557;28;20109;-36
2023/11/05 04:22:37;;;;;;;3.83;0.80;;;;;;;;;;5013499;28;20091;-36
2023/11/05 04:25:04;;;;;;;6.05;0.98;;;;;;;;;;5013303;28;20056;-36
2023/11/05 04:27:31;;;;;;;5.75;0.98;;;;;;;;;;5013041;28;20060;-36
2023/11/05 04:29:58;;;;;;;5.18;1.25;;;;;;;;;;5013298;28;20022;-36
2023/11/05 04:32:25;;;;;;;2.67;0.80;;;;;;;;;;5013264;28;20515;-36
2023/11/05 04:34:52;;;;;;;2.00;0.70;;;;;;;;;;5013164;28;20032;-36
2023/11/05 04:37:19;;;;;;;3.65;0.80;;;;;;;;;;5012975;28;20053;-36
2023/11/05 04:39:46;;;;;;;5.32;0.80;;;;;;;;;;5013031;28;20551;-36
2023/11/05 04:42:13;;;;;;;2.70;0.65;;;;;;;;;;5013025;28;20073;-36
2023/11/05 04:44:40;;;;;;;2.08;0.95;;;;;;;;;;5013087;28;20033;-36
2023/11/05 04:47:07;;;;;;;2.53;0.85;;;;;;;;;;5012901;28;20042;-36
2023/11/05 04:49:34;;;;;;;7.03;0.70;;;;;;;;;;5012757;28;20037;-36
2023/11/05 04:52:02;;;;;;;3.63;0.60;;;;;;;;;;5012969;28;20049;-36
2023/11/05 04:54:29;;;;;;;3.90;0.70;;;;;;;;;;5012726;28;20041;-36
2023/11/05 04:56:56;;;;;;;3.35;0.88;;;;;;;;;;5011796;28;20038;-36
2023/11/05 04:59:23;;;;;;;2.63;0.60;;;;;;;;;;5012732;28;20037;-36
2023/11/05 05:01:50;;;;;;;5.80;1.15;;;;;;;;;;5012740;28;20034;-36
2023/11/05 05:04:16;;;;;;;3.03;0.80;;;;;;;;;;5012738;28;20033;-36
2023/11/05 05:06:44;;;;;;;1.05;0.47;;;;;;;;;;5012536;28;20041;-36
2023/11/05 05:09:11;;;;;;;2.05;0.52;;;;;;;;;;5012568;28;20030;-36
2023/11/05 05:11:38;;;;;;;2.17;0.50;;;;;;;;;;5012620;28;20036;-36
2023/11/05 05:14:05;;;;;;;3.25;0.60;;;;;;;;;;5012576;28;20484;-36
2023/11/05 05:16:32;;;;;;;2.83;0.50;;;;;;;;;;5012310;28;20104;-36
2023/11/05 05:18:59;;;;;;;1.88;0.65;;;;;;;;;;5012514;28;20064;-36
2023/11/05 05:21:26;;;;;;;4.38;0.60;;;;;;;;;;5012411;28;20025;-36
2023/11/05 05:23:53;;;;;;;2.03;0.77;;;;;;;;;;5012326;28;20022;-36
2023/11/05 05:26:20;;;;;;;2.67;0.70;;;;;;;;;;5012148;28;20037;-36
2023/11/05 05:28:47;;;;;;;1.35;0.43;;;;;;;;;;5012180;28;20427;-36
2023/11/05 05:31:15;;;;;;;1.92;0.50;;;;;;;;;;5012265;28;20026;-36
2023/11/05 05:33:42;;;;;;;3.78;0.65;;;;;;;;;;5012051;28;20388;-36
2023/11/05 05:36:11;;;;;;;2.95;0.52;;;;;;;;;;5011980;28;20142;-36
2023/11/05 05:38:39;;;;;;;2.88;0.60;;;;;;;;;;5012084;28;20041;-36
2023/11/05 05:41:06;;;;;;;1.38;0.57;;;;;;;;;;5012160;28;20030;-35
2023/11/05 05:43:33;;;;;;;1.13;0.50;;;;;;;;;;5012066;28;20025;-35
2023/11/05 05:46:00;;;;;;;1.05;0.40;;;;;;;;;;5011875;28;20029;-35
2023/11/05 05:48:26;;;;;;;4.30;0.50;;;;;;;;;;5012052;28;20026;-35
2023/11/05 05:50:53;;;;;;;2.55;0.50;;;;;;;;;;5011833;28;20100;-35
2023/11/05 05:53:20;;;;;;;1.55;0.50;;;;;;;;;;5011896;28;20030;-35
2023/11/05 05:55:47;;;;;;;2.78;0.43;;;;;;;;;;5011819;28;20048;-36
2023/11/05 05:58:16;;;;;;;1.48;0.60;;;;;;;;;;5011885;28;20032;-36
2023/11/05 06:00:43;;;;;;;3.65;0.60;;;;;;;;;;5010715;28;20029;-36
2023/11/05 06:03:10;;;;;;;2.15;0.52;;;;;;;;;;5011612;28;20038;-36
2023/11/05 06:05:38;;;;;;;1.67;0.52;;;;;;;;;;5011837;28;20030;-36
2023/11/05 06:08:05;;;;;;;1.38;0.50;;;;;;;;;;5011741;28;20018;-36
2023/11/05 06:10:32;;;;;;;1.52;0.50;;;;;;;;;;5011855;28;20026;-36
2023/11/05 06:12:59;;;;;;;3.22;0.50;;;;;;;;;;5011716;28;20026;-36
2023/11/05 06:15:26;;;;;;;1.17;0.60;;;;;;;;;;5011625;28;20030;-36
2023/11/05 06:17:53;;;;;;;2.63;0.68;;;;;;;;;;5011571;28;20496;-35
2023/11/05 06:20:20;;;;;;;1.75;0.60;;;;;;;;;;5011492;28;20030;-36
2023/11/05 06:22:47;;;;;;;3.03;0.47;;;;;;;;;;5011690;28;20030;-36
2023/11/05 06:25:14;;;;;;;1.42;0.40;;;;;;;;;;5011661;28;20077;-36
2023/11/05 06:27:42;;;;;;;1.70;0.60;;;;;;;;;;5011169;28;20044;-36
2023/11/05 06:30:09;;;;;;;2.17;0.60;;;;;;;;;;5011647;28;20042;-36
2023/11/05 06:32:36;;;;;;;4.15;0.65;;;;;;;;;;5011392;28;20057;-36
2023/11/05 06:35:03;;;;;;;1.95;0.63;;;;;;;;;;5011547;28;20037;-35
2023/11/05 06:37:30;;;;;;;2.67;0.40;;;;;;;;;;5011314;28;20038;-36
2023/11/05 06:39:58;;;;;;;1.50;0.52;;;;;;;;;;5011436;28;20068;-36
2023/11/05 06:42:25;;;;;;;0.82;0.50;;;;;;;;;;5011590;28;20032;-36
2023/11/05 06:44:52;;;;;;;1.77;0.50;;;;;;;;;;5011595;28;20022;-37
2023/11/05 06:47:19;;;;;;;1.13;0.47;;;;;;;;;;5011368;28;20026;-36
2023/11/05 06:49:46;;;;;;;1.98;0.50;;;;;;;;;;5011386;28;20554;-36
2023/11/05 06:52:13;;;;;;;4.57;0.57;;;;;;;;;;5011425;28;20026;-36
2023/11/05 06:54:41;;;;;;;1.08;0.52;;;;;;;;;;5011378;28;20029;-36
2023/11/05 06:57:09;;;;;;;1.75;0.47;;;;;;;;;;5011297;28;20112;-36
2023/11/05 06:59:36;;;;;;;1.83;0.55;;;;;;;;;;5011275;28;20042;-36
2023/11/05 07:02:03;;;;;;;1.25;0.40;;;;;;;;;;5011419;28;20109;-36
2023/11/05 07:04:31;;;;;;;1.15;0.50;;;;;;;;;;5011369;28;20045;-36
2023/11/05 07:07:00;;;;;;;2.17;0.40;;;;;;;;;;5011085;28;20034;-36
2023/11/05 07:09:27;;;;;;;1.33;0.70;;;;;;;;;;5011167;28;20783;-36
2023/11/05 07:11:54;;;;;;;5.07;0.80;;;;;;;;;;5011270;28;20026;-36
2023/11/05 07:14:21;;;;;;;2.13;0.57;;;;;;;;;;5011248;28;20026;-36
2023/11/05 07:16:48;;;;;;;1.55;0.50;;;;;;;;;;5010814;28;20045;-36
2023/11/05 07:19:15;;;;;;;1.15;0.50;;;;;;;;;;5012912;28;20500;-36
2023/11/05 07:21:45;;;;;;;0.73;0.40;;;;;;;;;;5014767;28;20801;-36
2023/11/05 07:24:14;;;;;;;1.10;0.40;;;;;;;;;;5014675;28;20385;-36
2023/11/05 07:26:43;;;;;;;1.25;0.50;;;;;;;;;;5014299;28;20038;-36
2023/11/05 07:29:11;;;;;;;1.52;0.60;;;;;;;;;;5014293;28;20412;-36
2023/11/05 07:31:39;;;;;;;4.20;0.70;;;;;;;;;;5014440;28;20030;-36
2023/11/05 07:34:06;;;;;;;1.00;0.50;;;;;;;;;;5014484;28;20455;-36
2023/11/05 07:36:35;;;;;;;3.33;0.70;;;;;;;;;;5014216;28;20099;-36
2023/11/05 07:39:03;;;;;;;2.50;0.40;;;;;;;;;;5014276;28;20125;-36
2023/11/05 07:41:30;;;;;;;1.38;0.57;;;;;;;;;;5014343;28;20042;-36
2023/11/05 07:43:58;;;;;;;2.60;0.50;;;;;;;;;;5014308;28;20476;-36
2023/11/05 07:46:25;;;;;;;4.63;0.82;;;;;;;;;;5014125;28;20032;-36
2023/11/05 07:48:52;;;;;;;2.15;0.55;;;;;;;;;;5014086;28;20080;-36
2023/11/05 07:51:24;;;;;;;4.10;0.80;;;;;;;;;;5014206;28;20448;-36
2023/11/05 07:53:52;;;;;;;1.85;0.60;;;;;;;;;;5014197;28;20499;-36
2023/11/05 07:56:20;;;;;;;2.35;0.40;;;;;;;;;;5014050;28;20037;-36
2023/11/05 07:58:48;;;;;;;2.80;0.45;;;;;;;;;;5013999;28;20122;-36
2023/11/05 08:01:15;;;;;;;3.03;0.60;;;;;;;;;;5013753;28;20101;-36
2023/11/05 08:03:42;;;;;;;4.35;0.50;;;;;;;;;;5013690;28;20068;-36
2023/11/05 08:06:09;;;;;;;1.75;0.50;;;;;;;;;;5013742;28;20080;-36
2023/11/05 08:08:36;;;;;;;5.20;0.68;;;;;;;;;;5013862;28;20108;-36
2023/11/05 08:11:03;;;;;;;2.17;0.60;;;;;;;;;;5013739;28;20079;-36
2023/11/05 08:13:31;;;;;;;1.23;0.65;;;;;;;;;;5013572;28;20033;-36
2023/11/05 08:15:58;;;;;;;3.60;0.60;;;;;;;;;;5013551;28;20083;-36
2023/11/05 08:18:25;;;;;;;1.10;0.50;;;;;;;;;;5013605;28;20034;-36
2023/11/05 08:20:53;;;;;;;1.70;0.57;;;;;;;;;;5013598;28;20022;-37
2023/11/05 08:23:20;;;;;;;0.73;0.45;;;;;;;;;;5013418;28;20509;-36
2023/11/05 08:25:47;;;;;;;0.95;0.40;;;;;;;;;;5013387;28;20041;-36
2023/11/05 08:28:15;;;;;;;1.40;0.80;;;;;;;;;;5013298;28;20041;-36
2023/11/05 08:30:42;;;;;;;5.05;0.65;;;;;;;;;;5011952;28;20161;-36
2023/11/05 08:33:10;;;;;;;3.17;0.80;;;;;;;;;;5013294;28;20109;-36
2023/11/05 08:35:37;;;;;;;3.08;0.70;;;;;;;;;;5013132;28;20511;-36
2023/11/05 08:38:04;;;;;;;2.17;0.50;;;;;;;;;;5013196;28;20030;-36
2023/11/05 08:40:31;;;;;;;3.10;0.50;;;;;;;;;;5013173;28;20033;-36
2023/11/05 08:42:58;;;;;;;3.33;0.55;;;;;;;;;;5013240;28;20117;-36
2023/11/05 08:45:25;;;;;;;1.33;0.50;;;;;;;;;;5013128;28;20042;-36
2023/11/05 08:47:53;;;;;;;1.60;0.50;;;;;;;;;;5013110;28;20627;-36
2023/11/05 08:50:24;;;;;;;2.38;0.57;;;;;;;;;;5013202;28;20543;-36
2023/11/05 08:52:51;;;;;;;2.13;0.52;;;;;;;;;;4995385;28;20044;-36
2023/11/05 08:55:18;;;;;;;3.17;0.70;;;;;;;;;;5013038;28;20030;-36
2023/11/05 08:57:45;;;;;;;2.92;0.40;;;;;;;;;;5012906;28;20057;-36
2023/11/05 09:00:12;;;;;;;2.42;0.60;;;;;;;;;;5012905;28;20061;-36
2023/11/05 09:02:42;;;;;;;3.08;0.70;;;;;;;;;;4995082;28;20028;-36
2023/11/05 09:05:12;;;;;;;2.50;0.52;;;;;;;;;;5012947;28;20029;-36
2023/11/05 09:07:40;;;;;;;3.58;0.80;;;;;;;;;;5012683;28;20049;-36
2023/11/05 09:10:09;;;;;;;2.35;0.70;;;;;;;;;;5012572;28;20124;-36
2023/11/05 09:12:36;;;;;;;1.90;0.70;;;;;;;;;;5012762;28;20033;-36
2023/11/05 09:15:03;;;;;;;1.83;0.70;;;;;;;;;;5012571;28;20025;-36
2023/11/05 09:17:30;;;;;;;3.22;0.60;;;;;;;;;;5012462;28;20040;-37
2023/11/05 09:19:57;;;;;;;0.82;0.52;;;;;;;;;;5012613;28;20540;-36
2023/11/05 09:22:24;;;;;;;2.00;0.68;;;;;;;;;;5012225;28;20448;-36
2023/11/05 09:24:51;;;;;;;1.85;0.70;;;;;;;;;;5012522;28;20026;-36
2023/11/05 09:27:18;;;;;;;1.40;0.52;;;;;;;;;;4994488;28;20523;-36
2023/11/05 09:29:45;;;;;;;3.08;0.82;;;;;;;;;;5012087;28;20053;-35
2023/11/05 09:32:12;;;;;;;2.20;0.68;;;;;;;;;;4994575;28;20029;-35
2023/11/05 09:34:39;;;;;;;3.28;0.90;;;;;;;;;;5012221;28;20058;-36
2023/11/05 09:37:06;;;;;;;0.93;0.60;;;;;;;;;;5012209;28;20068;-36
2023/11/05 09:39:33;;;;;;;1.52;0.52;;;;;;;;;;4994561;28;20061;-35
2023/11/05 09:42:00;;;;;;;2.03;0.65;;;;;;;;;;5011829;28;20026;-36
2023/11/05 09:44:27;;;;;;;2.33;0.75;;;;;;;;;;5012127;28;20038;-36
2023/11/05 09:46:55;;;;;;;3.75;0.80;;;;;;;;;;5012018;28;20029;-36
2023/11/05 09:49:22;;;;;;;1.48;0.80;;;;;;;;;;5012130;28;20040;-36
2023/11/05 09:51:50;;;;;;;1.17;0.50;;;;;;;;;;5012092;28;20036;-36
2023/11/05 09:54:17;;;;;;;1.52;0.80;;;;;;;;;;5011868;28;20057;-36
2023/11/05 09:56:45;;;;;;;2.05;0.60;;;;;;;;;;5011785;28;20037;-36
2023/11/05 09:59:12;;;;;;;1.27;0.63;;;;;;;;;;5011742;28;20037;-36
2023/11/05 10:01:39;;;;;;;0.88;0.52;;;;;;;;;;5011825;28;20026;-36
2023/11/05 10:04:06;;;;;;;1.70;0.68;;;;;;;;;;5011922;28;20504;-36
2023/11/05 10:06:34;;;;;;;1.65;0.98;;;;;;;;;;5011846;28;20445;-36
2023/11/05 10:09:05;;;;;;;1.10;0.70;;;;;;;;;;5011954;28;20034;-36
2023/11/05 10:11:33;;;;;;;1.25;0.70;;;;;;;;;;4994028;28;20029;-36
2023/11/05 10:14:00;;;;;;;2.78;0.60;;;;;;;;;;5011840;28;20026;-36
2023/11/05 10:16:27;;;;;;;1.10;0.70;;;;;;;;;;5011682;28;20496;-36
2023/11/05 10:18:56;;;;;;;1.55;0.75;;;;;;;;;;5011658;28;20037;-36
2023/11/05 10:21:34;;;;;;;3.50;0.80;;;;;;;;;;5011852;28;20021;-36
2023/11/05 10:24:01;;;;;;;2.10;0.90;;;;;;;;;;5011487;28;20042;-36
2023/11/05 10:26:31;;;;;;;3.28;0.80;;;;;;;;;;5011731;28;20049;-36
2023/11/05 10:28:59;;;;;;;3.47;0.80;;;;;;;;;;5011569;28;20515;-36
2023/11/05 10:31:26;;;;;;;1.58;0.70;;;;;;;;;;5011745;28;20084;-36
2023/11/05 10:33:54;;;;;;;2.20;0.60;;;;;;;;;;5011740;28;20061;-36
2023/11/05 10:36:22;;;;;;;1.45;0.88;;;;;;;;;;5011527;28;20073;-36
2023/11/05 10:38:49;;;;;;;2.33;0.75;;;;;;;;;;5011641;28;20455;-36
2023/11/05 10:41:20;;;;;;;2.03;0.80;;;;;;;;;;5011629;28;20076;-36
2023/11/05 10:43:53;;;;;;;2.20;0.70;;;;;;;;;;5011681;28;20026;-36
2023/11/05 10:46:20;;;;;;;1.17;0.70;;;;;;;;;;5011423;28;20088;-36
2023/11/05 10:48:51;;;;;;;2.20;0.90;;;;;;;;;;5011623;28;20022;-36
2023/11/05 10:51:21;;;;;;;1.17;0.88;;;;;;;;;;5011494;28;20088;-36
2023/11/05 10:53:48;;;;;;;1.13;0.60;;;;;;;;;;5012421;28;20073;-35
2023/11/05 10:56:32;;;;;;;1.35;0.80;;;;;;;;;;5015190;28;20121;-35
2023/11/05 10:59:00;;;;;;;1.63;0.98;;;;;;;;;;5014950;28;20092;-35
2023/11/05 11:01:36;;;;;;;0.90;0.70;;;;;;;;;;5015173;28;20026;-36
2023/11/05 11:04:06;;;;;;;3.35;0.93;;;;;;;;;;5015160;28;20018;-35
2023/11/05 11:06:33;;;;;;;3.30;0.98;;;;;;;;;;5014922;28;20026;-36
2023/11/05 11:09:22;;;;;;;2.35;1.00;;;;;;;;;;5015030;28;20076;-36
2023/11/05 11:11:49;;;;;;;4.85;0.90;;;;;;;;;;5014965;28;20034;-35
2023/11/05 11:14:16;;;;;;;4.15;0.80;;;;;;;;;;5014870;28;20034;-35
2023/11/05 11:16:44;;;;;;;3.28;0.95;;;;;;;;;;5014556;28;20041;-35
2023/11/05 11:19:16;;;;;;;1.52;0.73;;;;;;;;;;5014787;28;20109;-35
2023/11/05 11:21:50;;;;;;;2.28;0.80;;;;;;;;;;5014642;28;20038;-36
2023/11/05 11:24:30;;;;;;;3.03;0.80;;;;;;;;;;5014770;28;20530;-36
2023/11/05 11:27:05;;;;;;;2.63;0.95;;;;;;;;;;5012564;28;20068;-36
2023/11/05 11:29:32;;;;;;;4.53;1.23;;;;;;;;;;5013202;28;20113;-36
2023/11/05 11:32:01;;;;;;;6.28;1.17;;;;;;;;;;5014032;28;20463;-36
2023/11/05 11:34:28;;;;;;;7.13;1.30;;;;;;;;;;4993714;28;20424;-36
2023/11/05 11:36:58;;;;;;;12.80;1.77;;;;;;;;;;5013826;28;20046;-36
2023/11/05 11:39:26;;;;;;;5.68;1.40;;;;;;;;;;5013748;28;20034;-35
2023/11/05 11:41:53;;;;;;;4.13;1.20;;;;;;;;;;5013806;28;20030;-36
2023/11/05 11:44:20;;;;;;;8.10;1.50;;;;;;;;;;5013697;28;20032;-35
2023/11/05 11:46:49;;;;;;;2.38;1.42;;;;;;;;;;5011101;28;20022;-36
2023/11/05 11:49:16;;;;;;;4.22;1.30;;;;;;;;;;5013605;28;20026;-36
2023/11/05 11:51:43;;;;;;;5.28;1.23;;;;;;;;;;5013453;28;20393;-36
2023/11/05 11:54:10;;;;;;;2.97;1.17;;;;;;;;;;5013540;28;20033;-36
2023/11/05 11:56:39;;;;;;;6.63;1.20;;;;;;;;;;5013316;28;20041;-36
2023/11/05 11:59:08;;;;;;;3.05;1.10;;;;;;;;;;5013649;28;20065;-36
2023/11/05 12:01:38;;;;;;;1.92;1.25;;;;;;;;;;5013414;28;20496;-36
2023/11/05 12:04:07;;;;;;;4.20;1.20;;;;;;;;;;5013131;28;20064;-36
2023/11/05 12:06:34;;;;;;;3.25;1.10;;;;;;;;;;5013186;28;20058;-36
2023/11/05 12:09:01;;;;;;;3.38;1.30;;;;;;;;;;5013246;28;20635;-36
2023/11/05 12:11:32;;;;;;;4.88;1.23;;;;;;;;;;5010700;28;20132;-35
2023/11/05 12:14:02;;;;;;;3.60;1.20;;;;;;;;;;5013141;28;20033;-35
2023/11/05 12:16:29;;;;;;;5.53;1.50;;;;;;;;;;5010451;28;20512;-36
2023/11/05 12:18:57;;;;;;;6.13;1.48;;;;;;;;;;5011638;28;20113;-36
2023/11/05 12:21:23;;;;;;;6.97;1.40;;;;;;;;;;5012611;28;20030;-35
2023/11/05 12:23:54;;;;;;;3.97;1.70;;;;;;;;;;5012813;28;20036;-36
2023/11/05 12:26:21;;;;;;;9.40;1.80;;;;;;;;;;5012435;28;20038;-36
2023/11/05 12:28:48;;;;;;;7.68;1.70;;;;;;;;;;5012165;28;20069;-36
2023/11/05 12:31:15;;;;;;;5.57;1.52;;;;;;;;;;5012775;28;20034;-36
2023/11/05 12:33:43;;;;;;;4.25;1.58;;;;;;;;;;5012569;28;20128;-36
2023/11/05 12:36:10;;;;;;;3.67;1.42;;;;;;;;;;5012571;28;20034;-36
2023/11/05 12:38:38;;;;;;;3.75;1.50;;;;;;;;;;5012729;28;20043;-36
2023/11/05 12:41:05;;;;;;;3.95;1.38;;;;;;;;;;5012587;28;20026;-36
2023/11/05 12:43:33;;;;;;;7.38;1.42;;;;;;;;;;5012372;28;20029;-37
2023/11/05 12:46:00;;;;;;;3.40;1.35;;;;;;;;;;5012510;28;20388;-35
2023/11/05 12:48:27;;;;;;;4.88;1.35;;;;;;;;;;5012318;28;20504;-36
2023/11/05 12:50:55;;;;;;;10.30;1.73;;;;;;;;;;5012397;28;20388;-36
2023/11/05 12:53:22;;;;;;;7.18;1.52;;;;;;;;;;5012383;28;20030;-36
2023/11/05 12:55:58;;;;;;;3.03;1.50;;;;;;;;;;5009604;28;20044;-35
2023/11/05 12:58:26;;;;;;;4.32;1.50;;;;;;;;;;5012033;28;20044;-37
2023/11/05 13:00:53;;;;;;;4.45;1.80;;;;;;;;;;5012339;28;20036;-36
2023/11/05 13:03:21;;;;;;;6.63;1.65;;;;;;;;;;4994453;28;20038;-36
2023/11/05 13:05:48;;;;;;;5.07;1.40;;;;;;;;;;4986535;28;20037;-36
2023/11/05 13:08:17;;;;;;;6.32;1.70;;;;;;;;;;5011772;28;20084;-36
2023/11/05 13:10:45;;;;;;;5.35;1.30;;;;;;;;;;5012022;28;20022;-36
2023/11/05 13:13:12;;;;;;;4.65;1.40;;;;;;;;;;5012067;28;20026;-36
2023/11/05 13:15:41;;;;;;;8.88;1.88;;;;;;;;;;5011742;28;20038;-36
2023/11/05 13:18:09;;;;;;;4.43;1.25;;;;;;;;;;5008945;28;20393;-35
2023/11/05 13:20:36;;;;;;;4.60;1.55;;;;;;;;;;5011507;28;20099;-35
2023/11/05 13:23:04;;;;;;;6.38;1.77;;;;;;;;;;5011698;28;20041;-35
2023/11/05 13:25:32;;;;;;;8.23;1.42;;;;;;;;;;5011846;28;20052;-36
2023/11/05 13:28:02;;;;;;;3.42;1.33;;;;;;;;;;5012156;28;20069;-35
2023/11/05 13:30:29;;;;;;;5.25;1.48;;;;;;;;;;5012317;28;20043;-36
2023/11/05 13:32:56;;;;;;;3.80;1.30;;;;;;;;;;5012292;28;20018;-35
2023/11/05 13:35:25;;;;;;;3.42;1.55;;;;;;;;;;5011962;28;20542;-35
2023/11/05 13:37:52;;;;;;;3.65;1.27;;;;;;;;;;5012111;28;20030;-35
2023/11/05 13:40:22;;;;;;;6.28;1.48;;;;;;;;;;5012154;28;20105;-36
2023/11/05 13:42:49;;;;;;;5.53;1.52;;;;;;;;;;5011918;28;20045;-36
2023/11/05 13:45:17;;;;;;;7.22;1.48;;;;;;;;;;5011849;28;20044;-36
2023/11/05 13:47:44;;;;;;;4.93;1.60;;;;;;;;;;5012010;28;20167;-36
2023/11/05 13:50:11;;;;;;;5.03;1.58;;;;;;;;;;5012094;28;20030;-35
2023/11/05 13:52:38;;;;;;;4.63;1.23;;;;;;;;;;5011443;28;20034;-36
2023/11/05 13:55:08;;;;;;;8.13;1.65;;;;;;;;;;5011362;28;20548;-35
2023/11/05 13:57:35;;;;;;;3.08;1.05;;;;;;;;;;5011801;28;20041;-35
2023/11/05 14:00:04;;;;;;;3.22;1.50;;;;;;;;;;5010644;28;20116;-36
2023/11/05 14:02:31;;;;;;;3.88;1.50;;;;;;;;;;5011499;28;20033;-36
2023/11/05 14:04:59;;;;;;;4.05;1.42;;;;;;;;;;5011596;28;20504;-35
2023/11/05 14:07:27;;;;;;;6.35;1.48;;;;;;;;;;5011872;28;20029;-35
2023/11/05 14:09:55;;;;;;;4.43;1.65;;;;;;;;;;5011725;28;20396;-35
2023/11/05 14:12:23;;;;;;;5.45;1.65;;;;;;;;;;5011424;28;20064;-35
2023/11/05 14:14:50;;;;;;;6.35;1.50;;;;;;;;;;5011451;28;20040;-36
2023/11/05 14:17:18;;;;;;;6.70;1.60;;;;;;;;;;5011711;28;20489;-36
2023/11/05 14:19:45;;;;;;;3.00;1.30;;;;;;;;;;5011579;28;20112;-35
2023/11/05 14:22:12;;;;;;;3.13;1.30;;;;;;;;;;5011444;28;20053;-36
2023/11/05 14:24:40;;;;;;;4.68;1.52;;;;;;;;;;5011500;28;20040;-36
2023/11/05 14:27:07;;;;;;;4.20;1.60;;;;;;;;;;5011518;28;20560;-35
2023/11/05 14:29:35;;;;;;;4.32;1.48;;;;;;;;;;5015408;28;20125;-36
2023/11/05 14:32:02;;;;;;;7.03;1.30;;;;;;;;;;5015689;28;20441;-35
2023/11/05 14:34:29;;;;;;;2.08;1.30;;;;;;;;;;5015261;28;20396;-35
2023/11/05 14:36:57;;;;;;;3.92;1.40;;;;;;;;;;5015371;28;20528;-35
2023/11/05 14:39:24;;;;;;;5.57;1.52;;;;;;;;;;5015443;28;20034;-35
2023/11/05 14:41:53;;;;;;;6.95;1.40;;;;;;;;;;5014897;28;20028;-35
2023/11/05 14:44:20;;;;;;;6.82;1.30;;;;;;;;;;5014620;28;20099;-35
2023/11/05 14:46:47;;;;;;;7.13;1.30;;;;;;;;;;5013443;28;20464;-36